sensor_id;sensor_type;location;lat;lon;timestamp;pressure;altitude;pressure_sealevel;temperature;humidity
41596;BME280;27283;52.504;13.358;2023-04-04T00:00:40;102703.56;;;-0.39;75.87
41596;BME280;27283;52.504;13.358;2023-04-04T00:03:17;102714.22;;;-0.42;76.28
41596;BME280;27283;52.504;13.358;2023-04-04T00:05:49;102709.47;;;-0.61;77.39
41596;BME280;27283;52.504;13.358;2023-04-04T00:08:21;102701.53;;;-0.61;77.89
41596;BME280;27283;52.504;13.358;2023-04-04T00:10:59;102710.13;;;-0.52;77.58
41596;BME280;27283;52.504;13.358;2023-04-04T00:13:34;102705.50;;;-0.46;76.61
41596;BME280;27283;52.504;13.358;2023-04-04T00:16:06;102699.53;;;-0.52;76.55
41596;BME280;27283;52.504;13.358;2023-04-04T00:18:39;102697.28;;;-0.65;77.71
41596;BME280;27283;52.504;13.358;2023-04-04T00:21:11;102704.34;;;-0.67;78.24
41596;BME280;27283;52.504;13.358;2023-04-04T00:23:43;102697.59;;;-0.77;78.98
41596;BME280;27283;52.504;13.358;2023-04-04T00:26:18;102698.72;;;-0.84;79.44
41596;BME280;27283;52.504;13.358;2023-04-04T00:28:50;102693.56;;;-0.89;79.76
41596;BME280;27283;52.504;13.358;2023-04-04T00:31:22;102695.84;;;-0.77;78.90
41596;BME280;27283;52.504;13.358;2023-04-04T00:33:55;102699.25;;;-0.73;78.38
41596;BME280;27283;52.504;13.358;2023-04-04T00:36:27;102699.69;;;-0.88;78.85
41596;BME280;27283;52.504;13.358;2023-04-04T00:38:59;102703.28;;;-0.91;79.55
41596;BME280;27283;52.504;13.358;2023-04-04T00:41:34;102700.69;;;-0.93;79.41
41596;BME280;27283;52.504;13.358;2023-04-04T00:44:06;102696.22;;;-0.89;79.64
41596;BME280;27283;52.504;13.358;2023-04-04T00:46:38;102704.28;;;-0.95;79.55
41596;BME280;27283;52.504;13.358;2023-04-04T00:49:10;102706.88;;;-0.94;79.90
41596;BME280;27283;52.504;13.358;2023-04-04T00:51:42;102693.84;;;-1.00;80.56
41596;BME280;27283;52.504;13.358;2023-04-04T00:54:15;102695.59;;;-0.99;80.36
41596;BME280;27283;52.504;13.358;2023-04-04T00:56:56;102697.06;;;-0.88;80.03
41596;BME280;27283;52.504;13.358;2023-04-04T00:59:33;102691.91;;;-0.93;80.16
41596;BME280;27283;52.504;13.358;2023-04-04T01:02:05;102697.28;;;-0.96;80.29
41596;BME280;27283;52.504;13.358;2023-04-04T01:04:37;102693.00;;;-1.00;80.61
41596;BME280;27283;52.504;13.358;2023-04-04T01:07:09;102688.31;;;-1.22;81.50
41596;BME280;27283;52.504;13.358;2023-04-04T01:09:42;102686.56;;;-1.23;81.57
41596;BME280;27283;52.504;13.358;2023-04-04T01:12:17;102688.28;;;-1.20;81.57
41596;BME280;27283;52.504;13.358;2023-04-04T01:14:50;102678.75;;;-1.26;82.23
41596;BME280;27283;52.504;13.358;2023-04-04T01:17:50;102678.59;;;-1.21;82.14
41596;BME280;27283;52.504;13.358;2023-04-04T01:20:25;102681.47;;;-1.29;82.51
41596;BME280;27283;52.504;13.358;2023-04-04T01:22:58;102675.19;;;-1.25;82.29
41596;BME280;27283;52.504;13.358;2023-04-04T01:25:35;102677.06;;;-1.30;82.27
41596;BME280;27283;52.504;13.358;2023-04-04T01:28:08;102680.47;;;-1.25;82.14
41596;BME280;27283;52.504;13.358;2023-04-04T01:30:41;102676.13;;;-1.28;82.20
41596;BME280;27283;52.504;13.358;2023-04-04T01:33:19;102671.88;;;-1.33;82.30
41596;BME280;27283;52.504;13.358;2023-04-04T01:36:15;102671.72;;;-1.27;82.32
41596;BME280;27283;52.504;13.358;2023-04-04T01:38:52;102676.31;;;-1.34;82.66
41596;BME280;27283;52.504;13.358;2023-04-04T01:41:32;102670.03;;;-1.30;82.65
41596;BME280;27283;52.504;13.358;2023-04-04T01:44:42;102674.28;;;-1.24;82.70
41596;BME280;27283;52.504;13.358;2023-04-04T01:47:48;102665.75;;;-1.34;82.31
41596;BME280;27283;52.504;13.358;2023-04-04T01:50:20;102667.41;;;-1.30;82.33
41596;BME280;27283;52.504;13.358;2023-04-04T01:52:53;102669.41;;;-1.39;82.86
41596;BME280;27283;52.504;13.358;2023-04-04T01:55:25;102658.94;;;-1.43;83.60
41596;BME280;27283;52.504;13.358;2023-04-04T01:58:00;102658.97;;;-1.44;83.36
41596;BME280;27283;52.504;13.358;2023-04-04T02:00:33;102659.78;;;-1.42;83.14
41596;BME280;27283;52.504;13.358;2023-04-04T02:03:36;102656.47;;;-1.49;84.01
41596;BME280;27283;52.504;13.358;2023-04-04T02:06:22;102649.50;;;-1.51;84.49
41596;BME280;27283;52.504;13.358;2023-04-04T02:09:52;102648.59;;;-1.50;83.82
41596;BME280;27283;52.504;13.358;2023-04-04T02:12:24;102646.91;;;-1.53;84.30
41596;BME280;27283;52.504;13.358;2023-04-04T02:14:59;102639.06;;;-1.56;84.68
41596;BME280;27283;52.504;13.358;2023-04-04T02:17:32;102640.03;;;-1.58;84.91
41596;BME280;27283;52.504;13.358;2023-04-04T02:20:05;102641.06;;;-1.64;85.14
41596;BME280;27283;52.504;13.358;2023-04-04T02:22:38;102650.63;;;-1.60;85.43
41596;BME280;27283;52.504;13.358;2023-04-04T02:25:11;102644.47;;;-1.61;85.36
41596;BME280;27283;52.504;13.358;2023-04-04T02:27:55;102641.94;;;-1.65;85.19
41596;BME280;27283;52.504;13.358;2023-04-04T02:31:13;102641.19;;;-1.69;85.41
41596;BME280;27283;52.504;13.358;2023-04-04T02:33:46;102643.66;;;-1.63;85.33
41596;BME280;27283;52.504;13.358;2023-04-04T02:36:21;102639.53;;;-1.73;86.10
41596;BME280;27283;52.504;13.358;2023-04-04T02:41:42;102626.38;;;-1.74;85.86
41596;BME280;27283;52.504;13.358;2023-04-04T02:44:16;102626.28;;;-1.71;86.03
41596;BME280;27283;52.504;13.358;2023-04-04T02:46:53;102621.75;;;-1.66;85.84
41596;BME280;27283;52.504;13.358;2023-04-04T02:49:26;102625.38;;;-1.70;85.76
41596;BME280;27283;52.504;13.358;2023-04-04T02:52:02;102625.34;;;-1.69;85.85
41596;BME280;27283;52.504;13.358;2023-04-04T02:54:37;102620.13;;;-1.70;85.68
41596;BME280;27283;52.504;13.358;2023-04-04T02:57:11;102618.28;;;-1.68;85.80
41596;BME280;27283;52.504;13.358;2023-04-04T02:59:44;102608.81;;;-1.75;86.20
41596;BME280;27283;52.504;13.358;2023-04-04T03:02:19;102612.38;;;-1.76;86.25
41596;BME280;27283;52.504;13.358;2023-04-04T03:04:53;102611.41;;;-1.74;86.08
41596;BME280;27283;52.504;13.358;2023-04-04T03:07:26;102614.31;;;-1.85;86.32
41596;BME280;27283;52.504;13.358;2023-04-04T03:09:59;102609.09;;;-1.86;86.58
41596;BME280;27283;52.504;13.358;2023-04-04T03:12:32;102605.59;;;-1.87;87.01
41596;BME280;27283;52.504;13.358;2023-04-04T03:15:05;102600.28;;;-1.85;86.68
41596;BME280;27283;52.504;13.358;2023-04-04T03:17:40;102607.38;;;-1.89;87.20
41596;BME280;27283;52.504;13.358;2023-04-04T03:20:14;102608.41;;;-1.93;87.18
41596;BME280;27283;52.504;13.358;2023-04-04T03:22:47;102611.84;;;-1.91;87.68
41596;BME280;27283;52.504;13.358;2023-04-04T03:25:20;102609.09;;;-1.86;87.51
41596;BME280;27283;52.504;13.358;2023-04-04T03:27:55;102609.25;;;-1.92;87.31
41596;BME280;27283;52.504;13.358;2023-04-04T03:30:29;102607.63;;;-1.98;88.15
41596;BME280;27283;52.504;13.358;2023-04-04T03:33:06;102603.41;;;-2.04;88.43
41596;BME280;27283;52.504;13.358;2023-04-04T03:35:40;102608.56;;;-1.99;88.61
41596;BME280;27283;52.504;13.358;2023-04-04T03:38:13;102598.13;;;-2.04;88.59
41596;BME280;27283;52.504;13.358;2023-04-04T03:40:46;102601.69;;;-2.06;89.17
41596;BME280;27283;52.504;13.358;2023-04-04T03:43:19;102602.41;;;-2.00;89.00
41596;BME280;27283;52.504;13.358;2023-04-04T03:45:52;102592.75;;;-1.99;88.70
41596;BME280;27283;52.504;13.358;2023-04-04T03:48:27;102588.31;;;-1.99;88.53
41596;BME280;27283;52.504;13.358;2023-04-04T03:51:02;102583.81;;;-1.95;88.67
41596;BME280;27283;52.504;13.358;2023-04-04T03:53:36;102577.78;;;-1.99;88.85
41596;BME280;27283;52.504;13.358;2023-04-04T03:56:11;102577.00;;;-2.02;88.69
41596;BME280;27283;52.504;13.358;2023-04-04T03:58:43;102577.91;;;-2.03;88.65
41596;BME280;27283;52.504;13.358;2023-04-04T04:01:17;102582.31;;;-2.04;88.87
41596;BME280;27283;52.504;13.358;2023-04-04T04:03:52;102580.44;;;-2.00;88.72
41596;BME280;27283;52.504;13.358;2023-04-04T04:06:24;102565.50;;;-2.00;88.67
41596;BME280;27283;52.504;13.358;2023-04-04T04:08:56;102567.38;;;-2.05;88.61
41596;BME280;27283;52.504;13.358;2023-04-04T04:11:30;102571.97;;;-2.13;88.97
41596;BME280;27283;52.504;13.358;2023-04-04T04:14:04;102569.22;;;-2.08;89.11
41596;BME280;27283;52.504;13.358;2023-04-04T04:16:38;102578.88;;;-2.07;89.17
41596;BME280;27283;52.504;13.358;2023-04-04T04:19:14;102572.69;;;-2.06;88.92
41596;BME280;27283;52.504;13.358;2023-04-04T04:21:47;102578.81;;;-2.06;88.99
41596;BME280;27283;52.504;13.358;2023-04-04T04:24:20;102581.53;;;-2.09;88.98
41596;BME280;27283;52.504;13.358;2023-04-04T04:26:56;102578.13;;;-2.12;89.21
41596;BME280;27283;52.504;13.358;2023-04-04T04:29:35;102573.72;;;-2.12;89.16
41596;BME280;27283;52.504;13.358;2023-04-04T04:32:08;102572.31;;;-2.27;89.47
41596;BME280;27283;52.504;13.358;2023-04-04T04:34:44;102578.25;;;-2.17;89.71
41596;BME280;27283;52.504;13.358;2023-04-04T04:37:17;102583.63;;;-2.22;90.13
41596;BME280;27283;52.504;13.358;2023-04-04T04:39:49;102582.69;;;-2.19;90.12
41596;BME280;27283;52.504;13.358;2023-04-04T04:42:23;102578.31;;;-2.20;90.09
41596;BME280;27283;52.504;13.358;2023-04-04T04:44:56;102580.78;;;-2.12;89.59
41596;BME280;27283;52.504;13.358;2023-04-04T04:47:30;102584.13;;;-2.07;89.21
41596;BME280;27283;52.504;13.358;2023-04-04T04:50:06;102582.22;;;-2.01;88.88
41596;BME280;27283;52.504;13.358;2023-04-04T04:52:40;102585.69;;;-1.99;88.69
41596;BME280;27283;52.504;13.358;2023-04-04T04:55:13;102587.41;;;-1.98;88.48
41596;BME280;27283;52.504;13.358;2023-04-04T04:57:47;102581.16;;;-1.93;88.39
41596;BME280;27283;52.504;13.358;2023-04-04T05:00:21;102590.78;;;-1.92;88.35
41596;BME280;27283;52.504;13.358;2023-04-04T05:02:54;102590.50;;;-1.82;87.92
41596;BME280;27283;52.504;13.358;2023-04-04T05:05:31;102593.34;;;-1.89;87.96
41596;BME280;27283;52.504;13.358;2023-04-04T05:08:04;102599.69;;;-1.97;88.50
41596;BME280;27283;52.504;13.358;2023-04-04T05:10:36;102597.84;;;-1.93;88.61
41596;BME280;27283;52.504;13.358;2023-04-04T05:13:10;102598.66;;;-1.91;88.82
41596;BME280;27283;52.504;13.358;2023-04-04T05:15:44;102596.72;;;-1.83;88.38
41596;BME280;27283;52.504;13.358;2023-04-04T05:18:18;102603.03;;;-1.90;88.19
41596;BME280;27283;52.504;13.358;2023-04-04T05:20:53;102603.72;;;-1.83;88.16
41596;BME280;27283;52.504;13.358;2023-04-04T05:23:29;102601.97;;;-1.83;87.91
41596;BME280;27283;52.504;13.358;2023-04-04T05:26:02;102603.91;;;-1.89;88.01
41596;BME280;27283;52.504;13.358;2023-04-04T05:28:37;102612.69;;;-1.90;88.15
41596;BME280;27283;52.504;13.358;2023-04-04T05:31:13;102614.16;;;-1.79;87.92
41596;BME280;27283;52.504;13.358;2023-04-04T05:33:48;102614.72;;;-1.66;87.85
41596;BME280;27283;52.504;13.358;2023-04-04T05:36:24;102618.00;;;-1.57;87.25
41596;BME280;27283;52.504;13.358;2023-04-04T05:38:58;102612.69;;;-1.56;86.85
41596;BME280;27283;52.504;13.358;2023-04-04T05:41:30;102611.56;;;-1.47;86.75
41596;BME280;27283;52.504;13.358;2023-04-04T05:44:03;102614.44;;;-1.55;86.27
41596;BME280;27283;52.504;13.358;2023-04-04T05:46:36;102613.34;;;-1.48;86.44
41596;BME280;27283;52.504;13.358;2023-04-04T05:49:09;102612.47;;;-1.48;86.03
41596;BME280;27283;52.504;13.358;2023-04-04T05:51:44;102616.16;;;-1.54;86.51
41596;BME280;27283;52.504;13.358;2023-04-04T05:54:17;102612.50;;;-1.50;86.06
41596;BME280;27283;52.504;13.358;2023-04-04T05:56:49;102609.69;;;-1.44;85.79
41596;BME280;27283;52.504;13.358;2023-04-04T05:59:22;102608.88;;;-1.46;86.03
41596;BME280;27283;52.504;13.358;2023-04-04T06:01:55;102617.50;;;-1.39;85.99
41596;BME280;27283;52.504;13.358;2023-04-04T06:04:28;102613.91;;;-1.36;85.87
41596;BME280;27283;52.504;13.358;2023-04-04T06:07:03;102617.34;;;-1.33;85.42
41596;BME280;27283;52.504;13.358;2023-04-04T06:09:37;102616.41;;;-1.32;84.95
41596;BME280;27283;52.504;13.358;2023-04-04T06:12:09;102616.13;;;-1.21;84.35
41596;BME280;27283;52.504;13.358;2023-04-04T06:14:42;102619.22;;;-1.07;84.13
41596;BME280;27283;52.504;13.358;2023-04-04T06:17:15;102619.84;;;-0.98;83.64
41596;BME280;27283;52.504;13.358;2023-04-04T06:19:48;102625.19;;;-1.00;82.84
41596;BME280;27283;52.504;13.358;2023-04-04T06:22:26;102627.81;;;-1.00;82.85
41596;BME280;27283;52.504;13.358;2023-04-04T06:24:58;102626.56;;;-0.86;82.02
41596;BME280;27283;52.504;13.358;2023-04-04T06:27:31;102628.16;;;-0.81;82.02
41596;BME280;27283;52.504;13.358;2023-04-04T06:30:05;102627.75;;;-0.67;81.17
41596;BME280;27283;52.504;13.358;2023-04-04T06:32:39;102623.09;;;-0.59;80.94
41596;BME280;27283;52.504;13.358;2023-04-04T06:35:12;102619.06;;;-0.42;79.46
41596;BME280;27283;52.504;13.358;2023-04-04T06:37:53;102624.09;;;-0.34;79.20
41596;BME280;27283;52.504;13.358;2023-04-04T06:40:26;102622.22;;;-0.31;79.34
41596;BME280;27283;52.504;13.358;2023-04-04T06:42:58;102625.03;;;-0.09;78.49
41596;BME280;27283;52.504;13.358;2023-04-04T06:45:35;102623.28;;;0.17;77.19
41596;BME280;27283;52.504;13.358;2023-04-04T06:48:08;102630.59;;;0.35;76.36
41596;BME280;27283;52.504;13.358;2023-04-04T06:50:41;102631.78;;;0.77;75.06
41596;BME280;27283;52.504;13.358;2023-04-04T06:53:17;102627.84;;;1.57;71.20
41596;BME280;27283;52.504;13.358;2023-04-04T06:55:52;102630.03;;;2.53;67.69
41596;BME280;27283;52.504;13.358;2023-04-04T06:58:24;102632.31;;;3.02;64.44
41596;BME280;27283;52.504;13.358;2023-04-04T07:01:01;102621.56;;;3.97;63.04
41596;BME280;27283;52.504;13.358;2023-04-04T07:03:39;102625.94;;;4.84;57.70
41596;BME280;27283;52.504;13.358;2023-04-04T07:06:15;102619.94;;;4.96;56.42
41596;BME280;27283;52.504;13.358;2023-04-04T07:08:56;102620.81;;;5.13;55.97
41596;BME280;27283;52.504;13.358;2023-04-04T07:11:29;102614.81;;;6.19;54.55
41596;BME280;27283;52.504;13.358;2023-04-04T07:14:03;102600.53;;;7.49;49.05
41596;BME280;27283;52.504;13.358;2023-04-04T07:16:36;102605.59;;;8.21;47.01
41596;BME280;27283;52.504;13.358;2023-04-04T07:19:09;102598.19;;;8.24;45.84
41596;BME280;27283;52.504;13.358;2023-04-04T07:21:42;102593.31;;;7.91;46.11
41596;BME280;27283;52.504;13.358;2023-04-04T07:24:19;102591.72;;;7.61;45.37
41596;BME280;27283;52.504;13.358;2023-04-04T07:26:52;102600.66;;;7.47;47.40
41596;BME280;27283;52.504;13.358;2023-04-04T07:29:25;102594.44;;;8.14;46.12
41596;BME280;27283;52.504;13.358;2023-04-04T07:31:59;102591.09;;;7.97;45.56
41596;BME280;27283;52.504;13.358;2023-04-04T07:34:32;102589.69;;;7.92;46.27
41596;BME280;27283;52.504;13.358;2023-04-04T07:37:05;102586.47;;;7.87;45.05
41596;BME280;27283;52.504;13.358;2023-04-04T07:39:40;102583.94;;;7.71;45.59
41596;BME280;27283;52.504;13.358;2023-04-04T07:42:13;102589.38;;;7.00;47.37
41596;BME280;27283;52.504;13.358;2023-04-04T07:44:51;102587.66;;;6.56;48.97
41596;BME280;27283;52.504;13.358;2023-04-04T07:47:28;102582.88;;;6.61;48.87
41596;BME280;27283;52.504;13.358;2023-04-04T07:50:01;102585.78;;;6.72;47.88
41596;BME280;27283;52.504;13.358;2023-04-04T07:52:35;102580.50;;;7.00;47.73
41596;BME280;27283;52.504;13.358;2023-04-04T07:55:10;102582.13;;;6.88;47.23
41596;BME280;27283;52.504;13.358;2023-04-04T07:57:45;102590.34;;;6.85;47.93
41596;BME280;27283;52.504;13.358;2023-04-04T08:00:18;102588.31;;;6.60;48.44
41596;BME280;27283;52.504;13.358;2023-04-04T08:02:53;102577.69;;;6.15;48.76
41596;BME280;27283;52.504;13.358;2023-04-04T08:05:27;102580.56;;;6.12;48.85
41596;BME280;27283;52.504;13.358;2023-04-04T08:08:00;102581.78;;;6.06;51.71
41596;BME280;27283;52.504;13.358;2023-04-04T08:10:35;102580.84;;;6.21;49.25
41596;BME280;27283;52.504;13.358;2023-04-04T08:13:08;102580.41;;;6.87;48.12
41596;BME280;27283;52.504;13.358;2023-04-04T08:15:41;102573.66;;;7.23;45.55
41596;BME280;27283;52.504;13.358;2023-04-04T08:18:14;102575.91;;;7.43;45.47
41596;BME280;27283;52.504;13.358;2023-04-04T08:20:46;102576.84;;;7.15;47.67
41596;BME280;27283;52.504;13.358;2023-04-04T08:23:19;102564.97;;;7.19;44.42
41596;BME280;27283;52.504;13.358;2023-04-04T08:25:54;102568.63;;;7.45;44.02
41596;BME280;27283;52.504;13.358;2023-04-04T08:28:28;102564.69;;;7.78;43.56
41596;BME280;27283;52.504;13.358;2023-04-04T08:31:00;102568.19;;;7.66;42.36
41596;BME280;27283;52.504;13.358;2023-04-04T08:33:36;102568.59;;;7.33;43.05
41596;BME280;27283;52.504;13.358;2023-04-04T08:36:15;102563.66;;;7.67;43.59
41596;BME280;27283;52.504;13.358;2023-04-04T08:38:48;102561.47;;;7.73;42.54
41596;BME280;27283;52.504;13.358;2023-04-04T08:41:23;102567.72;;;9.02;41.24
41596;BME280;27283;52.504;13.358;2023-04-04T08:43:56;102562.06;;;8.81;41.20
41596;BME280;27283;52.504;13.358;2023-04-04T08:46:32;102555.88;;;8.81;39.57
41596;BME280;27283;52.504;13.358;2023-04-04T08:49:10;102551.88;;;8.22;42.83
41596;BME280;27283;52.504;13.358;2023-04-04T08:51:45;102555.22;;;8.39;41.24
41596;BME280;27283;52.504;13.358;2023-04-04T08:54:19;102548.69;;;9.43;39.94
41596;BME280;27283;52.504;13.358;2023-04-04T08:56:55;102550.41;;;9.68;39.49
41596;BME280;27283;52.504;13.358;2023-04-04T08:59:28;102548.34;;;9.23;39.29
41596;BME280;27283;52.504;13.358;2023-04-04T09:02:32;102541.69;;;9.29;40.91
41596;BME280;27283;52.504;13.358;2023-04-04T09:05:09;102537.19;;;10.00;38.56
41596;BME280;27283;52.504;13.358;2023-04-04T09:07:43;102533.41;;;10.72;35.35
41596;BME280;27283;52.504;13.358;2023-04-04T09:10:15;102535.75;;;11.64;33.51
41596;BME280;27283;52.504;13.358;2023-04-04T09:12:52;102533.66;;;11.24;34.81
41596;BME280;27283;52.504;13.358;2023-04-04T09:15:47;102544.50;;;10.56;35.51
41596;BME280;27283;52.504;13.358;2023-04-04T09:18:22;102529.72;;;9.33;36.76
41596;BME280;27283;52.504;13.358;2023-04-04T09:20:55;102543.41;;;8.28;38.65
41596;BME280;27283;52.504;13.358;2023-04-04T09:23:27;102542.34;;;7.52;40.79
41596;BME280;27283;52.504;13.358;2023-04-04T11:00:48;102473.13;;;6.50;39.51
41596;BME280;27283;52.504;13.358;2023-04-04T11:03:27;102472.00;;;6.96;38.81
41596;BME280;27283;52.504;13.358;2023-04-04T11:09:50;102452.31;;;9.51;33.30
41596;BME280;27283;52.504;13.358;2023-04-04T11:12:28;102448.78;;;10.08;31.09
41596;BME280;27283;52.504;13.358;2023-04-04T11:15:07;102447.97;;;10.97;31.44
41596;BME280;27283;52.504;13.358;2023-04-04T11:17:51;102440.84;;;10.96;31.76
41596;BME280;27283;52.504;13.358;2023-04-04T11:20:32;102442.00;;;10.82;30.09
41596;BME280;27283;52.504;13.358;2023-04-04T11:23:14;102454.50;;;9.46;33.21
41596;BME280;27283;52.504;13.358;2023-04-04T11:25:50;102447.56;;;8.58;35.55
41596;BME280;27283;52.504;13.358;2023-04-04T11:31:27;102444.50;;;7.99;35.90
41596;BME280;27283;52.504;13.358;2023-04-04T11:34:05;102439.09;;;7.48;36.54
41596;BME280;27283;52.504;13.358;2023-04-04T11:36:50;102437.31;;;7.21;35.68
41596;BME280;27283;52.504;13.358;2023-04-04T11:39:46;102430.94;;;7.09;38.39
41596;BME280;27283;52.504;13.358;2023-04-04T11:42:32;102429.47;;;7.71;35.75
41596;BME280;27283;52.504;13.358;2023-04-04T11:45:05;102421.09;;;8.40;35.25
41596;BME280;27283;52.504;13.358;2023-04-04T11:47:38;102417.88;;;8.48;34.09
41596;BME280;27283;52.504;13.358;2023-04-04T11:50:14;102419.50;;;8.12;34.28
41596;BME280;27283;52.504;13.358;2023-04-04T11:52:46;102409.84;;;8.48;34.53
41596;BME280;27283;52.504;13.358;2023-04-04T11:55:20;102407.53;;;7.92;35.02
41596;BME280;27283;52.504;13.358;2023-04-04T11:57:52;102403.47;;;7.73;37.11
41596;BME280;27283;52.504;13.358;2023-04-04T12:00:29;102403.38;;;7.75;34.64
41596;BME280;27283;52.504;13.358;2023-04-04T12:03:04;102395.66;;;7.04;35.39
41596;BME280;27283;52.504;13.358;2023-04-04T12:05:42;102399.97;;;6.65;36.70
41596;BME280;27283;52.504;13.358;2023-04-04T12:08:15;102394.00;;;6.62;36.38
41596;BME280;27283;52.504;13.358;2023-04-04T12:10:46;102389.66;;;7.01;36.11
41596;BME280;27283;52.504;13.358;2023-04-04T12:13:18;102381.13;;;7.08;36.56
41596;BME280;27283;52.504;13.358;2023-04-04T12:15:49;102381.97;;;7.09;37.62
41596;BME280;27283;52.504;13.358;2023-04-04T12:18:24;102391.41;;;6.60;38.51
41596;BME280;27283;52.504;13.358;2023-04-04T12:20:58;102393.22;;;6.87;38.75
41596;BME280;27283;52.504;13.358;2023-04-04T12:23:32;102383.59;;;6.84;37.56
41596;BME280;27283;52.504;13.358;2023-04-04T12:26:04;102381.84;;;6.29;36.60
41596;BME280;27283;52.504;13.358;2023-04-04T12:28:37;102376.47;;;6.43;36.93
41596;BME280;27283;52.504;13.358;2023-04-04T12:31:09;102377.59;;;6.81;36.31
41596;BME280;27283;52.504;13.358;2023-04-04T12:33:43;102381.47;;;6.20;38.38
41596;BME280;27283;52.504;13.358;2023-04-04T12:36:18;102374.50;;;6.60;39.22
41596;BME280;27283;52.504;13.358;2023-04-04T12:38:56;102362.34;;;6.68;39.24
41596;BME280;27283;52.504;13.358;2023-04-04T12:41:29;102357.09;;;6.39;37.90
41596;BME280;27283;52.504;13.358;2023-04-04T12:44:03;102349.19;;;5.95;38.51
41596;BME280;27283;52.504;13.358;2023-04-04T12:46:39;102347.34;;;6.53;39.58
41596;BME280;27283;52.504;13.358;2023-04-04T12:49:20;102348.78;;;6.71;38.16
41596;BME280;27283;52.504;13.358;2023-04-04T12:51:55;102349.47;;;6.75;37.18
41596;BME280;27283;52.504;13.358;2023-04-04T12:54:34;102341.78;;;6.83;36.57
41596;BME280;27283;52.504;13.358;2023-04-04T12:58:34;102333.97;;;6.80;35.05
41596;BME280;27283;52.504;13.358;2023-04-04T13:00:38;102330.34;;;6.94;36.23
41596;BME280;27283;52.504;13.358;2023-04-04T13:03:11;102335.91;;;6.51;38.16
41596;BME280;27283;52.504;13.358;2023-04-04T13:05:47;102334.63;;;6.56;38.31
41596;BME280;27283;52.504;13.358;2023-04-04T13:08:23;102328.41;;;6.56;38.27
41596;BME280;27283;52.504;13.358;2023-04-04T13:11:20;102323.53;;;7.03;37.65
41596;BME280;27283;52.504;13.358;2023-04-04T13:14:00;102323.34;;;7.19;36.81
41596;BME280;27283;52.504;13.358;2023-04-04T13:16:35;102317.91;;;6.67;37.42
41596;BME280;27283;52.504;13.358;2023-04-04T13:19:07;102318.06;;;6.91;37.28
41596;BME280;27283;52.504;13.358;2023-04-04T13:21:41;102315.00;;;7.23;37.02
41596;BME280;27283;52.504;13.358;2023-04-04T13:24:16;102304.84;;;7.67;37.42
41596;BME280;27283;52.504;13.358;2023-04-04T13:26:48;102299.25;;;6.93;37.10
41596;BME280;27283;52.504;13.358;2023-04-04T13:29:21;102293.81;;;6.40;36.99
41596;BME280;27283;52.504;13.358;2023-04-04T13:31:57;102297.50;;;6.25;37.54
41596;BME280;27283;52.504;13.358;2023-04-04T13:34:30;102287.72;;;6.38;37.65
41596;BME280;27283;52.504;13.358;2023-04-04T13:37:04;102289.97;;;6.59;37.10
41596;BME280;27283;52.504;13.358;2023-04-04T13:39:40;102294.97;;;7.03;37.44
41596;BME280;27283;52.504;13.358;2023-04-04T13:42:13;102293.59;;;6.98;35.60
41596;BME280;27283;52.504;13.358;2023-04-04T13:45:04;102288.91;;;7.14;38.33
41596;BME280;27283;52.504;13.358;2023-04-04T13:47:40;102286.22;;;7.14;37.06
41596;BME280;27283;52.504;13.358;2023-04-04T13:50:13;102285.22;;;6.89;36.51
41596;BME280;27283;52.504;13.358;2023-04-04T13:52:50;102292.75;;;7.10;37.76
41596;BME280;27283;52.504;13.358;2023-04-04T13:55:26;102282.69;;;7.26;37.19
41596;BME280;27283;52.504;13.358;2023-04-04T13:58:35;102270.47;;;7.22;36.48
41596;BME280;27283;52.504;13.358;2023-04-04T14:01:08;102268.56;;;7.37;34.06
41596;BME280;27283;52.504;13.358;2023-04-04T14:03:42;102257.72;;;7.00;35.40
41596;BME280;27283;52.504;13.358;2023-04-04T14:06:15;102263.53;;;7.07;35.89
41596;BME280;27283;52.504;13.358;2023-04-04T14:08:48;102253.06;;;7.30;34.56
41596;BME280;27283;52.504;13.358;2023-04-04T14:11:23;102257.31;;;7.19;35.07
41596;BME280;27283;52.504;13.358;2023-04-04T14:14:03;102252.06;;;6.92;35.64
41596;BME280;27283;52.504;13.358;2023-04-04T14:16:47;102257.91;;;6.71;35.84
41596;BME280;27283;52.504;13.358;2023-04-04T14:19:20;102250.56;;;7.14;35.59
41596;BME280;27283;52.504;13.358;2023-04-04T14:21:53;102260.00;;;7.19;34.75
41596;BME280;27283;52.504;13.358;2023-04-04T14:24:26;102254.53;;;7.08;35.39
41596;BME280;27283;52.504;13.358;2023-04-04T14:27:02;102253.84;;;6.66;34.95
41596;BME280;27283;52.504;13.358;2023-04-04T14:29:35;102256.38;;;6.54;35.14
41596;BME280;27283;52.504;13.358;2023-04-04T14:32:08;102249.09;;;6.56;34.68
41596;BME280;27283;52.504;13.358;2023-04-04T14:34:42;102251.63;;;6.45;35.16
41596;BME280;27283;52.504;13.358;2023-04-04T14:37:15;102247.41;;;6.55;35.39
41596;BME280;27283;52.504;13.358;2023-04-04T14:39:48;102249.03;;;6.71;35.97
41596;BME280;27283;52.504;13.358;2023-04-04T14:42:24;102246.00;;;6.63;35.26
41596;BME280;27283;52.504;13.358;2023-04-04T14:44:57;102244.47;;;6.99;35.09
41596;BME280;27283;52.504;13.358;2023-04-04T14:47:33;102234.47;;;6.62;35.34
41596;BME280;27283;52.504;13.358;2023-04-04T14:50:07;102227.25;;;7.03;35.02
41596;BME280;27283;52.504;13.358;2023-04-04T14:52:40;102230.78;;;7.42;35.19
41596;BME280;27283;52.504;13.358;2023-04-04T14:55:13;102222.28;;;7.61;36.42
41596;BME280;27283;52.504;13.358;2023-04-04T14:57:51;102217.06;;;7.59;33.20
41596;BME280;27283;52.504;13.358;2023-04-04T15:00:37;102221.06;;;7.78;33.52
41596;BME280;27283;52.504;13.358;2023-04-04T15:03:13;102225.31;;;7.56;33.23
41596;BME280;27283;52.504;13.358;2023-04-04T15:05:47;102214.31;;;7.72;33.42
41596;BME280;27283;52.504;13.358;2023-04-04T15:08:20;102220.03;;;7.55;32.63
41596;BME280;27283;52.504;13.358;2023-04-04T15:10:53;102222.81;;;7.53;32.54
41596;BME280;27283;52.504;13.358;2023-04-04T15:13:28;102212.72;;;7.70;33.21